Time;durP1;ratioP1;P1;durP2;ratioP2;P2;SDS_P1;SDS_P2;PMS_P1;PMS_P2;Temp;Humidity;BMP_temperature;BMP_pressure;BME280_temperature;BME280_humidity;BME280_pressure;Samples;Min_cycle;Max_cycle;Signal;HPM_P1;HPM_P2
2022/08/12 00:43:28;;;;;;;3.10;2.90;;;21.00;68.70;;;;;;4996519;28;20388;-66
2022/08/12 00:48:40;;;;;;;4.23;2.63;;;20.80;69.50;;;;;;5015484;28;20446;-66
2022/08/12 00:51:07;;;;;;;2.63;2.43;;;20.70;70.20;;;;;;5014217;28;20462;-66
2022/08/12 00:53:34;;;;;;;3.10;2.80;;;20.70;70.20;;;;;;5015341;28;20916;-66
2022/08/12 00:56:01;;;;;;;2.53;2.33;;;20.60;70.80;;;;;;5015719;28;20443;-66
2022/08/12 00:58:29;;;;;;;2.83;2.60;;;20.60;71.30;;;;;;5015184;28;20399;-66
2022/08/12 01:01:07;;;;;;;2.90;2.70;;;20.50;71.50;;;;;;5015272;28;20422;-66
2022/08/12 01:12:03;;;;;;;2.87;2.20;;;20.50;73.30;;;;;;4978996;28;20479;-64
2022/08/12 01:14:28;;;;;;;2.70;2.50;;;20.40;73.40;;;;;;5015364;28;20475;-66
2022/08/12 01:16:55;;;;;;;4.23;2.77;;;20.40;73.90;;;;;;5014693;28;20486;-66
2022/08/12 01:19:23;;;;;;;2.90;2.40;;;20.40;74.10;;;;;;4997301;28;20612;-66
2022/08/12 01:22:08;;;;;;;2.97;2.50;;;20.40;74.60;;;;;;5014482;28;20489;-66
2022/08/12 01:24:45;;;;;;;3.10;2.80;;;20.30;74.90;;;;;;5014644;28;20756;-66
2022/08/12 01:27:14;;;;;;;4.07;3.10;;;20.20;75.60;;;;;;5013625;28;20417;-66
2022/08/12 01:29:43;;;;;;;2.80;2.60;;;20.00;76.40;;;;;;5014726;28;20429;-67
2022/08/12 01:32:13;;;;;;;4.13;2.80;;;20.00;77.20;;;;;;5015065;28;20896;-66
2022/08/12 01:34:45;;;;;;;3.00;2.70;;;19.90;77.80;;;;;;5014395;28;20900;-67
2022/08/12 01:37:13;;;;;;;2.77;2.57;;;19.80;78.70;;;;;;5014739;28;20376;-67
2022/08/12 01:39:49;;;;;;;3.43;2.47;;;19.80;79.50;;;;;;5013955;28;20915;-65
2022/08/12 01:42:19;;;;;;;2.70;2.50;;;19.80;79.80;;;;;;5014047;28;20486;-65
2022/08/12 01:44:46;;;;;;;3.97;2.80;;;19.90;80.50;;;;;;5013114;28;20470;-66
2022/08/12 01:47:56;;;;;;;2.87;2.57;;;19.90;80.60;;;;;;5014242;28;20414;-65
2022/08/12 01:50:35;;;;;;;3.37;3.07;;;19.80;81.30;;;;;;5010381;28;20435;-65
2022/08/12 01:53:07;;;;;;;3.00;2.80;;;19.70;82.30;;;;;;4996801;28;20771;-65
2022/08/12 01:55:35;;;;;;;7.40;3.07;;;19.70;82.80;;;;;;5013024;28;20493;-65
2022/08/12 01:58:28;;;;;;;3.90;2.90;;;19.70;83.50;;;;;;5014372;28;20406;-65
2022/08/12 02:01:03;;;;;;;3.27;2.97;;;19.70;83.50;;;;;;5013771;28;20418;-65
2022/08/12 02:13:07;;;;;;;3.43;3.00;;;19.50;86.40;;;;;;5018028;28;20461;-66
2022/08/12 02:15:43;;;;;;;4.60;2.70;;;19.50;87.70;;;;;;4994713;28;21071;-66
2022/08/12 02:18:40;;;;;;;3.63;2.90;;;19.60;87.70;;;;;;4994545;28;20450;-64
2022/08/12 02:21:18;;;;;;;3.30;3.00;;;19.70;87.60;;;;;;4989581;28;20439;-66
2022/08/12 02:23:44;;;;;;;2.80;2.60;;;19.70;88.00;;;;;;4993934;28;20372;-66
2022/08/12 02:26:14;;;;;;;4.83;2.90;;;19.60;88.20;;;;;;5001695;28;20415;-66
2022/08/12 02:28:40;;;;;;;3.33;2.50;;;19.50;89.20;;;;;;5014128;28;20807;-65
2022/08/12 02:31:07;;;;;;;4.67;3.30;;;19.60;89.70;;;;;;5013646;28;20422;-65
2022/08/12 02:33:36;;;;;;;3.03;2.63;;;19.60;90.00;;;;;;5013950;28;20637;-65
2022/08/12 02:36:03;;;;;;;3.10;2.60;;;19.60;90.10;;;;;;5013583;28;20473;-66
2022/08/12 02:38:30;;;;;;;5.00;3.23;;;19.60;90.10;;;;;;4995849;28;20841;-66
2022/08/12 02:41:00;;;;;;;3.97;3.20;;;19.60;90.60;;;;;;5013030;28;20427;-66
2022/08/12 02:43:39;;;;;;;3.17;2.87;;;19.40;90.70;;;;;;4998271;28;20407;-66
2022/08/12 02:46:08;;;;;;;3.57;3.27;;;19.40;91.00;;;;;;5013841;28;20410;-66
2022/08/12 02:48:56;;;;;;;5.70;2.80;;;19.40;91.30;;;;;;5013908;28;20526;-66
2022/08/12 02:51:24;;;;;;;2.87;2.67;;;19.40;91.50;;;;;;5013580;28;20403;-66
2022/08/12 02:53:50;;;;;;;3.13;2.83;;;19.40;91.60;;;;;;5013279;28;20442;-65
2022/08/12 02:56:17;;;;;;;3.50;2.87;;;19.40;91.70;;;;;;5011892;28;20450;-66
2022/08/12 02:58:45;;;;;;;3.60;3.30;;;19.40;91.90;;;;;;5013657;28;20776;-66
2022/08/12 03:01:12;;;;;;;3.47;3.17;;;19.40;91.90;;;;;;5013000;28;20426;-66
2022/08/12 03:03:40;;;;;;;3.17;2.87;;;19.30;92.10;;;;;;5013190;28;20407;-66
2022/08/12 03:06:14;;;;;;;3.27;2.90;;;19.40;92.30;;;;;;5012161;28;20557;-67
2022/08/12 03:08:42;;;;;;;4.43;3.57;;;19.50;92.20;;;;;;5013157;28;20987;-66
2022/08/12 03:11:17;;;;;;;3.60;3.30;;;19.40;92.30;;;;;;5013818;28;20457;-66
2022/08/12 03:13:51;;;;;;;3.60;3.10;;;19.40;92.40;;;;;;5017098;28;20930;-66
2022/08/12 03:16:19;;;;;;;2.90;2.70;;;19.40;92.50;;;;;;5016878;28;20438;-66
2022/08/12 03:18:47;;;;;;;4.83;3.10;;;19.40;92.70;;;;;;5017475;28;20398;-65
2022/08/12 03:21:16;;;;;;;2.77;2.57;;;19.30;93.10;;;;;;5018571;28;20887;-66
2022/08/12 03:23:44;;;;;;;4.13;3.23;;;19.20;93.50;;;;;;5017556;28;20395;-66
2022/08/12 03:26:10;;;;;;;3.07;2.53;;;19.20;93.40;;;;;;5016744;28;20435;-66
2022/08/12 03:28:56;;;;;;;3.40;3.10;;;19.30;93.80;;;;;;5017188;28;20411;-66
2022/08/12 03:31:33;;;;;;;3.57;3.37;;;19.20;93.70;;;;;;5017049;28;20387;-66
2022/08/12 03:34:02;;;;;;;3.73;3.00;;;19.20;94.10;;;;;;5017159;28;20382;-66
2022/08/12 03:36:30;;;;;;;3.10;2.80;;;19.20;94.30;;;;;;5016402;28;20485;-66
2022/08/12 03:39:20;;;;;;;6.13;3.10;;;19.10;94.50;;;;;;5016840;28;20414;-66
2022/08/12 03:42:00;;;;;;;4.30;2.60;;;19.10;94.50;;;;;;5016083;28;20437;-66
2022/08/12 04:01:24;;;;;;;3.20;2.90;;;18.60;97.10;;;;;;5016714;28;20429;-66
2022/08/12 04:03:51;;;;;;;3.47;3.07;;;18.60;97.00;;;;;;4998521;28;20429;-66
2022/08/12 04:06:20;;;;;;;3.27;2.93;;;18.60;97.30;;;;;;5016258;28;20842;-66
2022/08/12 04:08:51;;;;;;;5.37;3.30;;;18.50;97.20;;;;;;5016181;28;20538;-66
2022/08/12 04:14:13;;;;;;;4.30;3.33;;;18.40;97.40;;;;;;5016424;28;20449;-65
2022/08/12 04:16:39;;;;;;;3.53;3.23;;;18.40;97.70;;;;;;5016532;28;20859;-66
2022/08/12 04:19:06;;;;;;;3.87;3.20;;;18.50;97.70;;;;;;5015875;28;20407;-66
2022/08/12 04:21:32;;;;;;;3.63;3.33;;;18.50;97.50;;;;;;5015757;28;20411;-66
2022/08/12 04:23:59;;;;;;;4.00;3.10;;;18.60;97.50;;;;;;5015396;28;20411;-66
2022/08/12 04:26:26;;;;;;;3.47;3.17;;;18.60;97.60;;;;;;5015077;28;21002;-66
2022/08/12 04:28:55;;;;;;;3.50;2.93;;;18.60;97.70;;;;;;5015602;28;20407;-67
2022/08/12 04:31:34;;;;;;;3.90;3.57;;;18.50;97.90;;;;;;5015728;28;20469;-66
2022/08/12 04:34:01;;;;;;;3.07;2.80;;;18.60;97.80;;;;;;5016113;28;20450;-66
2022/08/12 04:36:28;;;;;;;7.70;3.33;;;18.60;98.10;;;;;;5015553;28;20487;-66
2022/08/12 04:38:54;;;;;;;4.30;3.83;;;18.60;98.00;;;;;;5015556;28;20422;-66
2022/08/12 04:41:20;;;;;;;4.07;3.60;;;18.60;97.90;;;;;;5014970;28;20403;-66
2022/08/12 04:43:47;;;;;;;3.53;3.23;;;18.60;98.00;;;;;;5015372;28;20434;-66
2022/08/12 04:46:13;;;;;;;4.30;3.37;;;18.40;98.10;;;;;;5015543;28;20454;-65
2022/08/12 04:48:40;;;;;;;4.10;3.70;;;18.40;98.60;;;;;;5015506;28;20412;-65
2022/08/12 04:51:06;;;;;;;4.00;3.50;;;18.40;98.50;;;;;;5015378;28;20525;-65
2022/08/12 04:53:32;;;;;;;4.23;2.70;;;18.50;98.90;;;;;;5015395;28;20419;-65
2022/08/12 04:55:59;;;;;;;5.90;3.30;;;18.50;98.40;;;;;;5014072;28;20911;-66
2022/08/12 04:58:24;;;;;;;4.53;3.90;;;18.50;98.60;;;;;;5015783;28;20780;-65
2022/08/12 05:00:50;;;;;;;4.40;3.53;;;18.50;98.50;;;;;;5012414;28;20439;-67
2022/08/12 05:03:16;;;;;;;3.27;2.97;;;18.50;98.70;;;;;;5026291;28;20410;-65
2022/08/12 05:05:42;;;;;;;3.67;3.37;;;18.50;98.90;;;;;;5013779;28;20184;-66
2022/08/12 05:08:15;;;;;;;3.80;3.50;;;18.60;98.70;;;;;;5005406;28;20660;-66
2022/08/12 05:10:43;;;;;;;3.40;3.10;;;18.70;98.80;;;;;;5004305;28;20757;-66
2022/08/12 05:13:13;;;;;;;4.20;3.27;;;18.80;98.60;;;;;;5005522;28;20430;-66
2022/08/12 05:15:40;;;;;;;3.77;3.43;;;18.80;98.40;;;;;;5011179;28;20458;-67
2022/08/12 05:18:06;;;;;;;4.47;3.47;;;18.80;98.50;;;;;;5005885;28;20410;-68
2022/08/12 05:20:33;;;;;;;6.20;3.40;;;18.80;98.30;;;;;;5005377;28;20501;-68
2022/08/12 05:23:07;;;;;;;5.53;3.97;;;18.80;98.60;;;;;;5005828;28;20175;-68
2022/08/12 05:25:32;;;;;;;4.37;3.33;;;18.70;98.90;;;;;;5005467;28;20861;-70
2022/08/12 05:27:59;;;;;;;3.57;3.20;;;18.80;99.20;;;;;;5005245;28;20532;-69
2022/08/12 05:30:32;;;;;;;3.60;3.30;;;18.80;99.20;;;;;;5006932;28;20672;-69
2022/08/12 05:32:59;;;;;;;4.07;3.73;;;18.80;99.40;;;;;;5017942;28;20425;-69
2022/08/12 05:35:25;;;;;;;3.80;3.50;;;18.80;99.40;;;;;;5033450;28;20450;-68
2022/08/12 05:38:54;;;;;;;5.43;3.93;;;19.00;99.50;;;;;;5021668;28;20468;-69
2022/08/12 05:40:40;;;;;;;3.87;3.40;;;19.10;99.20;;;;;;5013767;28;20673;-69
2022/08/12 05:43:06;;;;;;;3.53;3.23;;;19.10;99.00;;;;;;5014091;28;20409;-69
2022/08/12 05:45:32;;;;;;;6.27;3.90;;;19.20;98.90;;;;;;5014246;28;20908;-68
2022/08/12 05:47:58;;;;;;;5.67;4.07;;;19.30;98.80;;;;;;5011386;28;20491;-69
2022/08/12 05:50:24;;;;;;;7.33;3.97;;;19.40;98.30;;;;;;5014098;28;20935;-69
2022/08/12 05:52:51;;;;;;;4.17;3.77;;;19.60;98.30;;;;;;5014500;28;20180;-69
2022/08/12 05:55:18;;;;;;;3.47;3.17;;;19.70;97.90;;;;;;5014446;28;20843;-69
2022/08/12 05:57:47;;;;;;;5.60;3.83;;;19.80;97.90;;;;;;5012435;28;20485;-68
2022/08/12 06:00:15;;;;;;;4.27;3.77;;;19.90;97.90;;;;;;5014316;28;20518;-68
2022/08/12 06:02:41;;;;;;;4.40;3.63;;;20.00;97.80;;;;;;5014289;28;20458;-69
2022/08/12 06:05:09;;;;;;;3.53;3.23;;;20.10;97.50;;;;;;5014051;28;20415;-69
2022/08/12 06:07:44;;;;;;;3.97;3.67;;;20.20;97.30;;;;;;5014019;28;20168;-69
2022/08/12 06:10:10;;;;;;;4.30;3.60;;;20.30;96.90;;;;;;5013883;28;20492;-69
2022/08/12 06:12:35;;;;;;;4.47;3.93;;;20.40;96.40;;;;;;5012675;28;20770;-69
2022/08/12 06:15:03;;;;;;;3.70;3.40;;;20.60;96.30;;;;;;5013602;28;20500;-69
2022/08/12 06:17:29;;;;;;;4.10;3.03;;;20.70;96.30;;;;;;5013882;28;20528;-69
2022/08/12 06:19:57;;;;;;;4.73;4.23;;;20.80;95.70;;;;;;5014076;28;20427;-68
2022/08/12 06:22:23;;;;;;;3.60;3.30;;;21.00;95.90;;;;;;5013947;28;20494;-68
2022/08/12 06:24:51;;;;;;;3.50;3.20;;;21.10;95.50;;;;;;5013883;28;20406;-70
2022/08/12 06:27:17;;;;;;;6.80;3.67;;;21.20;95.40;;;;;;4996062;28;20422;-70
2022/08/12 06:29:43;;;;;;;4.63;3.33;;;21.30;93.40;;;;;;5013849;28;20800;-69
2022/08/12 06:32:08;;;;;;;3.57;3.27;;;21.20;94.30;;;;;;5013757;28;20255;-68
2022/08/12 06:34:35;;;;;;;4.20;3.80;;;21.30;93.90;;;;;;5013890;28;20490;-68
2022/08/12 06:37:01;;;;;;;5.97;3.70;;;21.30;93.00;;;;;;5013708;28;20568;-70
2022/08/12 06:39:27;;;;;;;3.73;3.37;;;21.50;92.60;;;;;;5013864;28;20935;-69
2022/08/12 06:44:38;;;;;;;6.70;3.97;;;21.50;91.60;;;;;;5013984;28;20294;-69
2022/08/12 06:47:04;;;;;;;4.37;3.30;;;21.70;91.90;;;;;;5013129;28;20422;-70
2022/08/12 06:49:35;;;;;;;5.13;3.53;;;21.70;91.30;;;;;;5013897;28;20426;-69
2022/08/12 06:52:01;;;;;;;4.67;4.10;;;21.40;91.10;;;;;;5013440;28;20441;-69
2022/08/12 06:54:26;;;;;;;3.70;3.07;;;21.40;90.90;;;;;;5013465;28;20403;-69
2022/08/12 06:56:52;;;;;;;6.13;4.07;;;21.50;91.00;;;;;;5011974;28;20537;-69
2022/08/12 06:59:20;;;;;;;7.03;3.53;;;21.40;91.40;;;;;;5013419;28;20188;-69
2022/08/12 07:01:46;;;;;;;5.73;3.80;;;21.40;91.40;;;;;;5013501;28;20164;-69
2022/08/12 07:04:13;;;;;;;6.40;3.30;;;21.50;91.00;;;;;;5013408;28;20505;-70
2022/08/12 07:06:39;;;;;;;3.50;3.07;;;21.80;91.10;;;;;;5012319;28;20896;-69
2022/08/12 07:09:05;;;;;;;7.77;4.57;;;22.10;89.90;;;;;;5013945;28;20426;-70
2022/08/12 07:11:32;;;;;;;3.77;3.47;;;22.30;88.90;;;;;;5013129;28;20156;-69
2022/08/12 07:14:01;;;;;;;6.17;3.07;;;22.50;89.80;;;;;;5013583;28;20411;-69
2022/08/12 07:16:50;;;;;;;3.70;3.00;;;22.50;88.00;;;;;;5013677;28;20458;-69
2022/08/12 07:19:12;;;;;;;3.27;2.97;;;22.50;87.10;;;;;;5011740;28;20833;-69
2022/08/12 07:21:38;;;;;;;4.53;3.10;;;22.50;85.40;;;;;;5013362;28;20407;-70
2022/08/12 07:24:04;;;;;;;3.93;3.10;;;22.70;87.10;;;;;;5013491;28;20168;-69
2022/08/12 07:26:30;;;;;;;5.73;3.20;;;23.00;84.20;;;;;;5012228;28;20291;-70
2022/08/12 07:28:55;;;;;;;3.30;3.00;;;23.10;83.40;;;;;;5013726;28;20483;-70
2022/08/12 07:31:21;;;;;;;4.73;3.63;;;23.00;82.80;;;;;;5013501;28;20169;-70
2022/08/12 07:33:48;;;;;;;3.10;2.80;;;22.90;83.70;;;;;;5013216;28;20200;-69
2022/08/12 07:36:14;;;;;;;3.53;3.23;;;22.90;83.20;;;;;;5013944;28;20188;-70
2022/08/12 07:38:44;;;;;;;3.33;3.00;;;23.00;83.20;;;;;;5013860;28;20396;-67
2022/08/12 07:41:21;;;;;;;6.47;3.00;;;23.10;81.80;;;;;;5013967;28;20187;-70
2022/08/12 07:43:52;;;;;;;6.83;3.20;;;23.40;80.70;;;;;;5009759;28;20930;-71
2022/08/12 07:46:21;;;;;;;3.37;3.07;;;23.50;80.70;;;;;;5013188;28;20411;-69
2022/08/12 07:48:50;;;;;;;3.90;2.70;;;23.80;80.70;;;;;;5013072;28;20442;-68
2022/08/12 07:51:16;;;;;;;6.33;2.90;;;23.50;78.70;;;;;;5013272;28;20423;-70
2022/08/12 07:53:42;;;;;;;4.40;3.28;;;23.50;79.30;;;;;;5011664;28;20419;-69
2022/08/12 07:56:09;;;;;;;5.70;3.60;;;23.90;78.30;;;;;;5013172;28;20255;-69
2022/08/12 07:58:38;;;;;;;6.00;3.67;;;23.70;76.70;;;;;;5015655;28;20168;-69
2022/08/12 08:01:10;;;;;;;5.13;3.40;;;23.80;77.20;;;;;;5016583;28;20453;-69
2022/08/12 08:04:54;;;;;;;3.43;3.13;;;23.90;75.80;;;;;;5016856;28;20744;-69
2022/08/12 08:06:25;;;;;;;3.63;3.33;;;23.90;76.30;;;;;;5016234;28;20414;-69
2022/08/12 08:08:50;;;;;;;5.97;3.30;;;24.00;74.60;;;;;;5016092;28;20395;-70
2022/08/12 08:14:02;;;;;;;3.17;2.50;;;24.20;73.50;;;;;;5016813;28;20592;-69
2022/08/12 08:16:28;;;;;;;3.20;2.77;;;24.20;74.20;;;;;;5016154;28;20447;-69
2022/08/12 08:18:54;;;;;;;3.40;2.83;;;24.50;74.80;;;;;;5016082;28;20438;-70
2022/08/12 08:21:20;;;;;;;4.80;3.20;;;24.80;72.30;;;;;;5016646;28;20493;-70
2022/08/12 08:26:31;;;;;;;3.83;2.87;;;24.40;73.40;;;;;;5019364;28;20481;-69
2022/08/12 08:28:58;;;;;;;6.40;3.17;;;24.40;73.00;;;;;;5036187;28;20874;-70
2022/08/12 08:31:24;;;;;;;4.80;3.10;;;24.60;72.70;;;;;;5016945;28;20415;-70
2022/08/12 08:33:49;;;;;;;3.93;2.90;;;24.50;72.60;;;;;;5015868;28;20407;-70
2022/08/12 08:36:16;;;;;;;3.87;2.87;;;24.60;73.10;;;;;;5015880;28;20188;-69
2022/08/12 08:38:44;;;;;;;3.00;2.43;;;24.50;72.80;;;;;;5015848;28;20519;-71
2022/08/12 08:43:57;;;;;;;5.00;2.83;;;24.80;70.20;;;;;;4996407;28;20379;-70
2022/08/12 08:46:24;;;;;;;6.83;2.67;;;24.80;70.30;;;;;;4995833;28;20913;-68
2022/08/12 08:48:50;;;;;;;4.10;2.50;;;25.00;69.70;;;;;;4995833;28;20444;-69
2022/08/12 08:51:15;;;;;;;3.90;2.60;;;25.00;68.50;;;;;;4996040;28;20505;-71
2022/08/12 08:53:43;;;;;;;3.13;2.37;;;25.10;68.00;;;;;;5005652;28;20175;-70
2022/08/12 08:56:09;;;;;;;3.57;2.43;;;25.20;67.80;;;;;;5014879;28;20238;-70
2022/08/12 08:58:37;;;;;;;5.63;2.77;;;25.00;67.20;;;;;;5013957;28;20419;-69
2022/08/12 09:01:04;;;;;;;3.93;2.50;;;25.10;67.80;;;;;;5015051;28;20799;-69
2022/08/12 09:03:29;;;;;;;4.67;2.57;;;25.10;66.40;;;;;;5015170;28;20485;-70
2022/08/12 09:05:55;;;;;;;6.33;2.60;;;25.20;67.40;;;;;;5015394;28;20498;-70
2022/08/12 09:08:21;;;;;;;3.67;3.10;;;25.50;66.10;;;;;;5014697;28;20200;-70
2022/08/12 09:10:47;;;;;;;10.03;2.93;;;25.60;65.30;;;;;;5014430;28;20648;-70
2022/08/12 09:13:31;;;;;;;6.83;2.10;;;25.50;63.60;;;;;;5014663;28;20442;-70
2022/08/12 09:15:57;;;;;;;3.57;2.40;;;25.50;63.80;;;;;;5014979;28;20462;-70
2022/08/12 09:18:23;;;;;;;2.80;2.00;;;25.60;63.80;;;;;;5015081;28;20443;-70
2022/08/12 09:20:49;;;;;;;2.23;2.03;;;25.80;62.00;;;;;;5014981;28;20180;-70
2022/08/12 09:23:16;;;;;;;4.30;2.47;;;25.80;61.50;;;;;;5015105;28;20788;-70
2022/08/12 09:25:47;;;;;;;3.00;2.40;;;25.70;61.80;;;;;;5015076;28;20415;-70
2022/08/12 09:28:13;;;;;;;2.43;2.13;;;25.90;61.30;;;;;;5014418;28;20542;-69
2022/08/12 09:30:59;;;;;;;2.40;2.20;;;25.80;61.20;;;;;;5015085;28;20431;-70
2022/08/12 09:33:32;;;;;;;2.57;2.37;;;26.00;60.70;;;;;;5015457;28;20609;-70
2022/08/12 09:36:03;;;;;;;4.53;2.33;;;26.10;59.40;;;;;;5014837;28;20435;-70
2022/08/12 09:38:30;;;;;;;4.03;2.30;;;26.10;59.60;;;;;;5014407;28;20857;-70
2022/08/12 09:40:56;;;;;;;2.90;2.10;;;26.20;59.30;;;;;;5013512;28;20818;-69
2022/08/12 09:46:06;;;;;;;2.60;1.97;;;26.10;59.70;;;;;;5014904;28;20393;-70
2022/08/12 09:48:33;;;;;;;2.40;1.83;;;26.10;59.30;;;;;;5014382;28;20970;-70
2022/08/12 09:50:59;;;;;;;2.13;1.93;;;26.40;58.30;;;;;;5014862;28;20184;-69
2022/08/12 09:53:25;;;;;;;2.77;2.23;;;26.60;58.10;;;;;;5014247;28;20431;-69
2022/08/12 09:55:53;;;;;;;4.83;1.97;;;26.60;57.30;;;;;;5014972;28;20962;-68
2022/08/12 09:58:27;;;;;;;2.23;2.03;;;26.80;57.10;;;;;;5013260;28;20430;-68
2022/08/12 10:00:55;;;;;;;2.33;2.13;;;26.70;57.00;;;;;;5014173;28;20461;-69
2022/08/12 10:03:25;;;;;;;3.50;2.60;;;26.70;57.40;;;;;;5014073;28;20399;-68
2022/08/12 10:05:52;;;;;;;5.83;3.40;;;26.50;57.80;;;;;;5013197;28;20412;-68
2022/08/12 10:08:18;;;;;;;3.10;2.57;;;26.70;57.80;;;;;;5014108;28;20930;-69
2022/08/12 10:13:42;;;;;;;2.20;2.00;;;27.00;55.90;;;;;;5013951;28;20402;-71
2022/08/12 10:16:11;;;;;;;2.50;2.20;;;27.20;56.80;;;;;;5014350;28;20434;-67
2022/08/12 10:18:41;;;;;;;3.67;2.30;;;27.40;55.90;;;;;;5013960;28;20399;-68
2022/08/12 10:21:12;;;;;;;2.77;2.50;;;27.70;55.20;;;;;;5013342;28;20458;-69
2022/08/12 10:23:39;;;;;;;3.30;2.50;;;27.60;54.90;;;;;;5013287;28;20410;-69
2022/08/12 10:31:33;;;;;;;3.60;2.30;;;27.40;56.40;;;;;;5014232;28;20394;-68
2022/08/12 10:33:59;;;;;;;2.20;2.00;;;27.30;56.00;;;;;;5013689;28;20410;-67
2022/08/12 10:36:25;;;;;;;4.30;2.20;;;27.20;56.60;;;;;;5012660;28;20203;-70
2022/08/12 10:38:51;;;;;;;3.47;2.30;;;27.30;56.40;;;;;;5014152;28;20168;-70
2022/08/12 10:44:11;;;;;;;3.23;2.13;;;27.30;56.60;;;;;;5013797;28;20179;-68
2022/08/12 10:46:37;;;;;;;3.00;2.10;;;27.70;55.80;;;;;;5014320;28;20383;-69
2022/08/12 10:49:03;;;;;;;3.43;2.17;;;27.70;55.70;;;;;;5013607;28;20903;-67
2022/08/12 10:51:29;;;;;;;2.47;2.17;;;27.90;54.30;;;;;;5013565;28;20493;-69
2022/08/12 10:53:55;;;;;;;4.10;2.53;;;27.40;55.10;;;;;;5013838;28;20435;-70
2022/08/12 10:56:21;;;;;;;3.00;2.30;;;27.40;54.70;;;;;;5013507;28;20224;-68
2022/08/12 10:58:47;;;;;;;3.37;2.10;;;27.80;54.20;;;;;;5012190;28;20164;-69
2022/08/12 11:01:17;;;;;;;3.00;2.13;;;28.50;52.90;;;;;;5013056;28;20927;-70
2022/08/12 11:03:42;;;;;;;2.50;2.30;;;29.80;51.40;;;;;;5013733;28;20743;-70
2022/08/12 11:06:10;;;;;;;4.20;2.40;;;30.80;49.00;;;;;;5013426;28;20407;-69
2022/08/12 11:08:37;;;;;;;2.03;1.93;;;31.00;46.80;;;;;;5013602;28;20263;-69
2022/08/12 11:11:07;;;;;;;3.20;2.43;;;31.20;46.90;;;;;;4994457;28;20470;-69
2022/08/12 11:16:17;;;;;;;3.07;2.20;;;30.60;48.20;;;;;;5023698;28;20476;-68
2022/08/12 11:18:44;;;;;;;2.37;2.17;;;30.60;47.80;;;;;;5028645;28;20410;-66
2022/08/12 11:21:10;;;;;;;2.90;1.80;;;30.40;47.40;;;;;;5033023;28;20641;-68
2022/08/12 11:23:35;;;;;;;1.70;1.60;;;30.50;47.20;;;;;;5032432;28;20409;-67
2022/08/12 11:26:01;;;;;;;3.20;2.13;;;30.20;47.70;;;;;;5032262;28;20187;-68
2022/08/12 11:28:26;;;;;;;3.30;1.90;;;30.50;47.40;;;;;;5032544;28;20637;-68
2022/08/12 11:30:52;;;;;;;1.80;1.70;;;31.30;45.70;;;;;;5031473;28;20663;-69
2022/08/12 11:33:18;;;;;;;4.60;2.10;;;31.50;44.70;;;;;;5035172;28;20167;-68
2022/08/12 11:35:43;;;;;;;3.63;2.00;;;32.50;43.90;;;;;;5036277;28;20209;-68
2022/08/12 11:38:09;;;;;;;2.07;1.90;;;32.70;42.60;;;;;;5036140;28;20536;-67
2022/08/12 11:40:36;;;;;;;2.57;1.93;;;32.50;43.00;;;;;;5036315;28;20164;-68
2022/08/12 11:43:01;;;;;;;2.10;1.77;;;33.80;41.20;;;;;;5035933;28;20405;-67
2022/08/12 11:45:28;;;;;;;6.00;2.30;;;33.20;41.20;;;;;;5035820;28;20426;-67
2022/08/12 11:47:54;;;;;;;3.07;1.90;;;31.60;43.00;;;;;;5036141;28;20175;-68
2022/08/12 11:50:20;;;;;;;3.47;1.60;;;30.60;44.80;;;;;;5036081;28;20410;-67
2022/08/12 11:52:47;;;;;;;2.40;1.97;;;30.00;45.60;;;;;;5036072;28;20402;-67
2022/08/12 11:55:13;;;;;;;2.30;1.90;;;30.30;45.90;;;;;;5035813;28;20973;-68
2022/08/12 11:57:53;;;;;;;5.30;2.37;;;32.30;42.90;;;;;;5035584;28;20406;-67
2022/08/12 12:00:20;;;;;;;3.47;1.87;;;33.60;40.90;;;;;;5034485;28;20417;-69
2022/08/12 12:02:46;;;;;;;1.90;1.40;;;34.20;38.90;;;;;;5036033;28;20402;-68
2022/08/12 12:05:14;;;;;;;1.90;1.60;;;33.70;39.20;;;;;;5035851;28;20426;-69
2022/08/12 12:07:41;;;;;;;2.00;1.80;;;33.70;39.00;;;;;;5035946;28;20786;-70
2022/08/12 12:10:07;;;;;;;2.30;2.10;;;32.60;40.40;;;;;;5018107;28;20497;-69
2022/08/12 12:12:33;;;;;;;1.80;1.53;;;31.50;42.20;;;;;;5035709;28;20437;-68
2022/08/12 12:14:59;;;;;;;4.17;1.80;;;31.30;42.90;;;;;;5034774;28;20207;-68
2022/08/12 12:17:25;;;;;;;2.97;2.23;;;31.40;42.60;;;;;;5035473;28;20398;-68
2022/08/12 12:19:52;;;;;;;1.90;1.53;;;32.40;40.60;;;;;;5035841;28;20171;-69
2022/08/12 12:22:18;;;;;;;2.33;2.00;;;32.60;40.50;;;;;;5036059;28;20402;-70
2022/08/12 12:24:46;;;;;;;5.70;1.90;;;33.30;39.40;;;;;;5035709;28;20517;-69
2022/08/12 12:27:12;;;;;;;3.93;1.83;;;32.50;40.20;;;;;;5035630;28;20414;-69
2022/08/12 12:29:37;;;;;;;4.00;1.57;;;32.60;40.30;;;;;;5034882;28;20911;-67
2022/08/12 12:32:03;;;;;;;2.10;1.50;;;31.70;42.00;;;;;;5035213;28;20410;-68
2022/08/12 12:34:29;;;;;;;2.30;2.00;;;31.50;41.40;;;;;;5035179;28;20187;-68
2022/08/12 12:36:55;;;;;;;3.23;2.00;;;30.80;41.90;;;;;;5035112;28;20446;-67
2022/08/12 12:39:21;;;;;;;4.73;1.73;;;30.50;42.50;;;;;;5035672;28;20175;-68
2022/08/12 12:41:47;;;;;;;3.10;2.30;;;31.60;41.30;;;;;;5035169;28;20217;-68
2022/08/12 12:44:12;;;;;;;3.10;1.80;;;33.10;39.70;;;;;;5034327;28;20422;-68
2022/08/12 12:46:38;;;;;;;1.87;1.63;;;34.70;37.90;;;;;;5033884;28;20554;-68
2022/08/12 12:49:03;;;;;;;1.70;1.60;;;34.70;36.20;;;;;;5035209;28;20214;-66
2022/08/12 12:51:29;;;;;;;7.23;2.00;;;32.60;39.60;;;;;;5034949;28;20573;-67
2022/08/12 12:53:55;;;;;;;2.60;1.77;;;32.70;40.60;;;;;;5034651;28;20167;-67
2022/08/12 12:56:22;;;;;;;2.23;1.80;;;31.80;40.80;;;;;;5017058;28;20206;-67
2022/08/12 12:58:50;;;;;;;2.20;1.53;;;30.90;42.30;;;;;;5034375;28;20170;-66
2022/08/12 13:01:26;;;;;;;1.50;1.40;;;31.10;42.60;;;;;;5034124;28;20413;-67
2022/08/12 13:03:53;;;;;;;5.50;2.30;;;31.60;41.90;;;;;;5035261;28;20377;-67
2022/08/12 13:06:24;;;;;;;2.47;2.03;;;33.90;39.40;;;;;;5034954;28;20489;-68
2022/08/12 13:08:50;;;;;;;2.33;2.00;;;34.70;36.90;;;;;;5034567;28;20444;-67
2022/08/12 13:11:20;;;;;;;2.33;1.80;;;35.90;37.00;;;;;;5034502;28;20445;-67
2022/08/12 13:13:48;;;;;;;1.77;1.60;;;36.60;35.20;;;;;;5034360;28;20413;-69
2022/08/12 13:16:20;;;;;;;3.00;2.00;;;37.40;35.20;;;;;;5033642;28;20499;-68
2022/08/12 13:18:50;;;;;;;1.60;1.50;;;36.40;35.30;;;;;;5034891;28;20385;-68
2022/08/12 13:21:17;;;;;;;4.47;1.83;;;34.00;38.30;;;;;;5034499;28;20754;-68
2022/08/12 13:23:48;;;;;;;1.90;1.63;;;32.30;39.90;;;;;;5034383;28;20913;-68
2022/08/12 13:26:16;;;;;;;2.97;1.90;;;32.50;40.60;;;;;;5034680;28;20628;-69
2022/08/12 13:28:44;;;;;;;2.50;1.77;;;34.10;38.50;;;;;;5034344;28;20505;-69
2022/08/12 13:31:11;;;;;;;2.20;1.80;;;34.60;36.90;;;;;;5034282;28;20484;-69
2022/08/12 13:33:38;;;;;;;4.30;1.53;;;35.40;36.40;;;;;;5034620;28;20425;-70
2022/08/12 13:36:04;;;;;;;2.73;1.73;;;34.90;36.50;;;;;;5034186;28;20457;-68
2022/08/12 13:38:37;;;;;;;1.67;1.57;;;33.50;37.40;;;;;;5033778;28;20453;-69
2022/08/12 13:41:05;;;;;;;2.33;1.70;;;32.70;39.20;;;;;;5034371;28;20449;-68
2022/08/12 13:43:32;;;;;;;2.10;1.90;;;32.10;39.80;;;;;;5033439;28;20409;-68
2022/08/12 13:46:00;;;;;;;3.37;1.80;;;31.30;40.50;;;;;;5033307;28;20495;-68
2022/08/12 13:48:26;;;;;;;4.07;1.60;;;30.50;42.30;;;;;;5034209;28;20432;-68
2022/08/12 13:50:52;;;;;;;4.03;1.50;;;31.00;42.00;;;;;;5033836;28;20403;-70
2022/08/12 13:53:18;;;;;;;2.30;1.77;;;32.50;39.70;;;;;;5033909;28;20409;-68
2022/08/12 13:55:46;;;;;;;1.93;1.77;;;32.10;40.10;;;;;;5033352;28;20203;-69
2022/08/12 13:58:16;;;;;;;3.40;1.87;;;32.20;40.20;;;;;;5033611;28;20410;-68
2022/08/12 14:00:44;;;;;;;3.43;1.80;;;32.40;40.10;;;;;;5032396;28;20414;-70
2022/08/12 14:03:13;;;;;;;1.80;1.60;;;33.30;39.00;;;;;;5033599;28;20413;-69
2022/08/12 14:05:39;;;;;;;1.70;1.60;;;33.70;38.00;;;;;;5033382;28;20927;-70
2022/08/12 14:08:06;;;;;;;1.53;1.43;;;34.00;37.30;;;;;;5033567;28;20923;-68
2022/08/12 14:10:35;;;;;;;3.97;1.60;;;33.10;38.30;;;;;;5027662;28;20429;-68
2022/08/12 14:13:15;;;;;;;2.13;1.70;;;32.40;39.40;;;;;;5030535;28;20425;-68
2022/08/12 14:15:48;;;;;;;4.80;1.90;;;32.00;40.10;;;;;;5032630;28;20469;-68
2022/08/12 14:18:16;;;;;;;4.90;1.70;;;32.00;40.50;;;;;;5033357;28;20473;-69
2022/08/12 14:21:14;;;;;;;2.13;1.67;;;32.80;39.30;;;;;;5033325;28;20402;-70
2022/08/12 14:23:46;;;;;;;2.43;1.53;;;34.30;38.00;;;;;;5016969;28;20411;-68
2022/08/12 14:26:16;;;;;;;2.00;1.80;;;35.60;36.00;;;;;;5033545;28;20390;-69
2022/08/12 14:28:42;;;;;;;1.80;1.50;;;36.50;35.90;;;;;;5033109;28;20914;-69
2022/08/12 14:31:09;;;;;;;1.63;1.43;;;36.50;34.20;;;;;;5032676;28;20472;-69
2022/08/12 14:33:46;;;;;;;2.07;1.40;;;36.70;34.10;;;;;;5033417;28;20414;-67
2022/08/12 14:36:23;;;;;;;1.73;1.47;;;37.20;33.40;;;;;;5033221;28;20445;-67
2022/08/12 14:38:52;;;;;;;2.60;1.50;;;36.90;33.10;;;;;;5033376;28;20385;-69
2022/08/12 14:41:21;;;;;;;1.83;1.70;;;36.20;34.30;;;;;;5033024;28;20430;-68
2022/08/12 14:43:49;;;;;;;1.90;1.70;;;37.20;32.80;;;;;;5033010;28;20404;-71
2022/08/12 14:46:21;;;;;;;1.83;1.20;;;36.20;34.00;;;;;;5032744;28;20406;-68